createdAt,value
2019-05-29T00:00:40.517Z,101977.64
2019-05-29T00:03:10.546Z,101977.95
2019-05-29T00:05:38.903Z,101987.86
2019-05-29T00:08:08.235Z,101995.19
2019-05-29T00:10:36.589Z,101995.48
2019-05-29T00:13:04.745Z,101994.91
2019-05-29T00:15:32.889Z,101994.73
2019-05-29T00:18:03.541Z,101995.46
2019-05-29T00:20:31.671Z,101997.61
2019-05-29T00:22:59.812Z,101990.50
2019-05-29T00:25:28.030Z,101996.09
2019-05-29T00:27:56.234Z,101990.71
2019-05-29T00:30:24.341Z,101995.39
2019-05-29T00:32:52.570Z,101996.65
2019-05-29T00:35:20.687Z,101999.56
2019-05-29T00:37:51.928Z,101999.90
2019-05-29T00:40:20.749Z,101999.86
2019-05-29T00:42:48.897Z,102003.73
2019-05-29T00:45:17.720Z,102005.79
2019-05-29T00:47:46.113Z,102011.80
2019-05-29T00:50:16.901Z,102010.38
2019-05-29T00:52:45.097Z,102007.22
2019-05-29T00:55:14.697Z,102014.58
2019-05-29T00:57:43.053Z,102015.00
2019-05-29T01:00:11.740Z,102017.61
2019-05-29T01:02:39.890Z,102012.69
2019-05-29T01:05:08.123Z,102012.64
2019-05-29T01:07:36.297Z,102020.76
2019-05-29T01:10:05.984Z,102027.66
2019-05-29T01:12:36.491Z,102029.77
2019-05-29T01:15:05.939Z,102025.38
2019-05-29T01:17:34.121Z,102030.55
2019-05-29T01:20:05.373Z,102032.28
2019-05-29T01:22:33.632Z,102030.84
2019-05-29T01:25:01.781Z,102026.47
2019-05-29T01:27:29.935Z,102036.77
2019-05-29T01:29:58.097Z,102040.17
2019-05-29T01:32:26.300Z,102036.17
2019-05-29T01:34:55.948Z,102037.84
2019-05-29T01:37:24.394Z,102040.33
2019-05-29T01:39:52.649Z,102039.86
2019-05-29T01:42:23.883Z,102041.53
2019-05-29T01:45:06.643Z,102038.84
2019-05-29T01:47:24.018Z,102040.98
2019-05-29T01:49:52.157Z,102046.15
2019-05-29T01:52:23.801Z,102047.03
2019-05-29T01:54:52.039Z,102053.05
2019-05-29T01:57:20.167Z,102055.27
2019-05-29T01:59:48.293Z,102053.42
2019-05-29T02:02:17.699Z,102056.39
2019-05-29T02:04:46.019Z,102056.78
2019-05-29T02:07:14.163Z,102050.68
2019-05-29T02:09:42.466Z,102060.64
2019-05-29T02:12:10.644Z,102046.25
2019-05-29T02:14:38.786Z,102047.89
2019-05-29T02:17:06.969Z,102058.27
2019-05-29T02:19:35.107Z,102059.94
2019-05-29T02:22:03.241Z,102055.06
2019-05-29T02:24:31.474Z,102060.22
2019-05-29T02:26:59.613Z,102060.55
2019-05-29T02:29:27.789Z,102054.83
2019-05-29T02:31:55.907Z,102044.68
2019-05-29T02:34:25.529Z,102054.92
2019-05-29T02:36:54.536Z,102059.11
2019-05-29T02:39:23.457Z,102058.59
2019-05-29T02:41:52.575Z,102055.06
2019-05-29T02:44:21.170Z,102057.98
2019-05-29T02:46:49.568Z,102064.41
2019-05-29T02:49:19.977Z,102079.11
2019-05-29T02:51:48.661Z,102075.61
2019-05-29T02:54:16.837Z,102073.34
2019-05-29T02:56:45.034Z,102076.83
2019-05-29T02:59:13.179Z,102071.98
2019-05-29T03:01:41.394Z,102075.01
2019-05-29T03:04:09.558Z,102082.83
2019-05-29T03:06:37.904Z,102081.10
2019-05-29T03:09:06.499Z,102084.59
2019-05-29T03:11:34.657Z,102098.50
2019-05-29T03:14:02.799Z,102097.20
2019-05-29T03:16:32.855Z,102095.02
2019-05-29T03:19:00.849Z,102101.53
2019-05-29T03:21:30.581Z,102110.23
2019-05-29T03:24:01.775Z,102113.20
2019-05-29T03:26:31.257Z,102115.80
2019-05-29T03:28:59.796Z,102119.71
2019-05-29T03:31:32.204Z,102114.92
2019-05-29T03:33:58.082Z,102121.43
2019-05-29T03:36:28.395Z,102121.02
2019-05-29T03:38:56.295Z,102118.41
2019-05-29T03:41:26.185Z,102122.73
2019-05-29T03:43:54.360Z,102126.70
2019-05-29T03:46:31.450Z,102124.09
2019-05-29T03:48:52.493Z,102119.71
2019-05-29T03:51:20.665Z,102119.30
2019-05-29T03:53:48.791Z,102124.50
2019-05-29T03:56:16.948Z,102124.92
2019-05-29T03:58:45.107Z,102135.76
2019-05-29T04:01:13.269Z,102133.95
2019-05-29T04:03:41.446Z,102136.86
2019-05-29T04:06:09.541Z,102137.10
2019-05-29T04:08:38.352Z,102146.08
2019-05-29T04:11:07.625Z,102148.27
2019-05-29T04:13:36.597Z,102143.47
2019-05-29T04:16:06.550Z,102155.66
2019-05-29T04:18:35.923Z,102157.85
2019-05-29T04:21:04.316Z,102159.66
2019-05-29T04:23:34.644Z,102165.75
2019-05-29T04:26:04.284Z,102169.34
2019-05-29T04:28:34.923Z,102169.01
2019-05-29T04:31:03.132Z,102166.93
2019-05-29T04:33:32.633Z,102176.19
2019-05-29T04:36:01.315Z,102175.03
2019-05-29T04:38:30.975Z,102174.73
2019-05-29T04:40:59.385Z,102181.05
2019-05-29T04:43:28.839Z,102180.84
2019-05-29T04:45:57.050Z,102182.25
2019-05-29T04:48:25.307Z,102188.96
2019-05-29T04:50:53.451Z,102183.89
2019-05-29T04:53:21.624Z,102191.48
2019-05-29T04:55:49.767Z,102203.88
2019-05-29T04:58:17.951Z,102200.66
2019-05-29T05:00:58.583Z,102193.92
2019-05-29T05:03:16.069Z,102195.83
2019-05-29T05:05:44.245Z,102206.51
2019-05-29T05:08:12.436Z,102206.28
2019-05-29T05:10:41.379Z,102210.38
2019-05-29T05:13:09.540Z,102218.48
2019-05-29T05:15:38.185Z,102229.20
2019-05-29T05:18:08.256Z,102226.45
2019-05-29T05:20:36.495Z,102233.77
2019-05-29T05:23:05.276Z,102235.02
2019-05-29T05:25:38.359Z,102235.85
2019-05-29T05:28:06.565Z,102235.80
2019-05-29T05:30:34.786Z,102250.27
2019-05-29T05:33:04.666Z,102249.40
2019-05-29T05:35:32.987Z,102245.04
2019-05-29T05:38:03.922Z,102246.34
2019-05-29T05:40:32.991Z,102245.52
2019-05-29T05:43:04.553Z,102246.78
2019-05-29T05:45:32.942Z,102250.01
2019-05-29T05:48:03.193Z,102250.08
2019-05-29T05:50:31.407Z,102249.75
2019-05-29T05:52:59.519Z,102255.45
2019-05-29T05:55:28.843Z,102262.07
2019-05-29T05:57:57.005Z,102258.11
2019-05-29T06:00:34.139Z,102265.48
2019-05-29T06:03:02.354Z,102273.22
2019-05-29T06:05:31.898Z,102275.25
2019-05-29T06:08:00.323Z,102275.39
2019-05-29T06:10:28.439Z,102275.50
2019-05-29T06:12:56.595Z,102270.41
2019-05-29T06:15:24.925Z,102274.06
2019-05-29T06:18:17.129Z,102279.02
2019-05-29T06:20:22.953Z,102280.51
2019-05-29T06:22:51.123Z,102279.41
2019-05-29T06:25:19.253Z,102280.93
2019-05-29T06:27:47.397Z,102276.33
2019-05-29T06:30:15.984Z,102275.75
2019-05-29T06:32:45.238Z,102274.67
2019-05-29T06:35:14.312Z,102282.74
2019-05-29T06:37:43.648Z,102280.75
2019-05-29T06:40:12.298Z,102289.20
2019-05-29T06:42:40.469Z,102295.86
2019-05-29T06:45:09.307Z,102291.11
2019-05-29T06:47:38.605Z,102302.55
2019-05-29T06:50:07.244Z,102302.61
2019-05-29T06:52:35.425Z,102300.52
2019-05-29T06:55:03.828Z,102302.38
2019-05-29T06:57:32.021Z,102307.76
2019-05-29T07:00:00.150Z,102308.34
2019-05-29T07:02:31.681Z,102308.05
2019-05-29T07:04:58.187Z,102299.88
2019-05-29T07:07:26.380Z,102301.78
2019-05-29T07:09:58.734Z,102299.34
2019-05-29T07:12:24.486Z,102308.25
2019-05-29T07:14:52.658Z,102305.78
2019-05-29T07:17:20.878Z,102306.88
2019-05-29T07:20:00.734Z,102306.57
2019-05-29T07:22:18.917Z,102308.13
2019-05-29T07:24:47.097Z,102309.73
2019-05-29T07:27:15.257Z,102316.64
2019-05-29T07:29:43.592Z,102316.55
2019-05-29T07:32:11.679Z,102315.59
2019-05-29T07:34:53.718Z,102317.28
2019-05-29T07:37:09.699Z,102319.29
2019-05-29T07:39:37.871Z,102316.52
2019-05-29T07:42:06.008Z,102317.20
2019-05-29T07:44:34.168Z,102317.38
2019-05-29T07:47:02.326Z,102314.92
2019-05-29T07:49:39.048Z,102322.13
2019-05-29T07:52:00.401Z,102317.48
2019-05-29T07:54:28.538Z,102314.58
2019-05-29T07:56:56.694Z,102316.91
2019-05-29T07:59:24.807Z,102317.14
2019-05-29T08:01:53.010Z,102322.66
2019-05-29T08:04:21.194Z,102322.91
2019-05-29T08:06:54.236Z,102320.47
2019-05-29T08:09:19.294Z,102317.55
2019-05-29T08:11:47.736Z,102318.56
2019-05-29T08:14:15.909Z,102321.27
2019-05-29T08:16:44.107Z,102320.05
2019-05-29T08:19:12.195Z,102323.16
2019-05-29T08:21:41.036Z,102321.60
2019-05-29T08:24:10.176Z,102316.02
2019-05-29T08:26:38.318Z,102316.85
2019-05-29T08:29:06.494Z,102314.03
2019-05-29T08:31:34.647Z,102316.03
2019-05-29T08:34:02.811Z,102309.94
2019-05-29T08:36:30.940Z,102313.94
2019-05-29T08:38:59.103Z,102312.14
2019-05-29T08:41:27.310Z,102309.59
2019-05-29T08:43:55.487Z,102311.64
2019-05-29T08:46:23.640Z,102302.16
2019-05-29T08:48:52.269Z,102313.81
2019-05-29T08:51:20.600Z,102308.95
2019-05-29T08:53:52.484Z,102302.70
2019-05-29T08:56:20.893Z,102305.30
2019-05-29T08:58:52.566Z,102305.30
2019-05-29T09:01:20.810Z,102301.78
2019-05-29T09:03:51.369Z,102298.17
2019-05-29T09:06:19.998Z,102293.73
2019-05-29T09:08:49.932Z,102293.61
2019-05-29T09:11:18.095Z,102297.38
2019-05-29T09:13:46.274Z,102294.77
2019-05-29T09:16:17.288Z,102299.81
2019-05-29T09:18:45.493Z,102293.50
2019-05-29T09:21:14.434Z,102293.05
2019-05-29T09:23:43.577Z,102294.03
2019-05-29T09:26:19.047Z,102291.24
2019-05-29T09:28:44.715Z,102291.48
2019-05-29T09:31:15.089Z,102291.70
2019-05-29T09:33:42.525Z,102288.89
2019-05-29T09:36:13.954Z,102293.03
2019-05-29T09:38:44.234Z,102290.45
2019-05-29T09:41:21.703Z,102286.55
2019-05-29T09:43:58.674Z,102288.09
2019-05-29T09:46:20.246Z,102293.39
2019-05-29T09:48:50.357Z,102289.17
2019-05-29T09:51:21.897Z,102295.20
2019-05-29T09:53:50.436Z,102289.02
2019-05-29T09:56:19.509Z,102289.66
2019-05-29T09:58:50.685Z,102289.09
2019-05-29T10:01:24.154Z,102289.84
2019-05-29T10:03:51.069Z,102292.93
2019-05-29T10:06:19.401Z,102292.89
2019-05-29T10:08:47.574Z,102286.85
2019-05-29T10:11:15.830Z,102286.85
2019-05-29T10:13:45.011Z,102293.63
2019-05-29T10:16:13.351Z,102292.73
2019-05-29T10:18:41.561Z,102294.65
2019-05-29T10:21:17.633Z,102294.06
2019-05-29T10:23:45.906Z,102295.21
2019-05-29T10:26:14.130Z,102287.08
2019-05-29T10:28:55.632Z,102283.39
2019-05-29T10:31:12.212Z,102280.89
2019-05-29T10:33:42.379Z,102280.55
2019-05-29T10:36:10.631Z,102279.26
2019-05-29T10:38:42.756Z,102281.51
2019-05-29T10:41:10.961Z,102280.02
2019-05-29T10:43:39.154Z,102275.27
2019-05-29T10:46:07.367Z,102271.99
2019-05-29T10:48:35.566Z,102264.17
2019-05-29T10:51:05.236Z,102277.41
2019-05-29T10:53:33.433Z,102269.86
2019-05-29T10:56:01.638Z,102273.68
2019-05-29T10:58:29.760Z,102270.85
2019-05-29T11:00:57.912Z,102268.03
2019-05-29T11:03:26.151Z,102268.19
2019-05-29T11:05:56.617Z,102265.75
2019-05-29T11:08:24.871Z,102266.77
2019-05-29T11:10:54.165Z,102263.02
2019-05-29T11:13:22.361Z,102259.80
2019-05-29T11:15:50.836Z,102258.18
2019-05-29T11:18:19.016Z,102258.05
2019-05-29T11:20:49.622Z,102272.43
2019-05-29T11:23:17.047Z,102263.47
2019-05-29T11:25:49.888Z,102264.67
2019-05-29T11:28:18.488Z,102259.72
2019-05-29T11:30:46.621Z,102253.33
2019-05-29T11:33:14.957Z,102264.61
2019-05-29T11:35:57.247Z,102250.18
2019-05-29T11:38:13.158Z,102248.16
2019-05-29T11:40:41.517Z,102258.75
2019-05-29T11:43:09.807Z,102248.29
2019-05-29T11:45:37.988Z,102251.41
2019-05-29T11:48:06.058Z,102249.59
2019-05-29T11:50:34.206Z,102255.41
2019-05-29T11:53:02.689Z,102251.94
2019-05-29T11:55:30.992Z,102251.47
2019-05-29T11:58:01.949Z,102255.67
2019-05-29T12:00:29.449Z,102255.08
2019-05-29T12:02:57.800Z,102259.03
2019-05-29T12:05:26.023Z,102253.62
2019-05-29T12:07:55.498Z,102260.46
2019-05-29T12:10:23.884Z,102248.16
2019-05-29T12:12:53.257Z,102245.73
2019-05-29T12:15:21.943Z,102244.78
2019-05-29T12:17:50.098Z,102245.05
2019-05-29T12:20:27.896Z,102246.43
2019-05-29T12:23:12.956Z,102244.14
2019-05-29T12:25:18.452Z,102253.72
2019-05-29T12:27:46.766Z,102252.39
2019-05-29T12:30:15.851Z,102242.38
2019-05-29T12:32:44.028Z,102250.92
2019-05-29T12:35:12.579Z,102256.70
2019-05-29T12:37:40.744Z,102250.47
2019-05-29T12:40:09.675Z,102239.51
2019-05-29T12:42:44.800Z,102241.20
2019-05-29T12:45:14.513Z,102243.04
2019-05-29T12:47:42.627Z,102245.91
2019-05-29T12:50:11.461Z,102241.91
2019-05-29T12:52:39.756Z,102230.06
2019-05-29T12:55:09.683Z,102234.84
2019-05-29T12:57:37.895Z,102235.47
2019-05-29T13:00:06.540Z,102221.91
2019-05-29T13:02:34.660Z,102222.05
2019-05-29T13:05:09.341Z,102231.80
2019-05-29T13:07:33.595Z,102224.20
2019-05-29T13:10:02.842Z,102225.43
2019-05-29T13:12:31.145Z,102219.18
2019-05-29T13:15:00.619Z,102227.84
2019-05-29T13:17:28.830Z,102228.05
2019-05-29T13:20:06.825Z,102227.28
2019-05-29T13:22:27.170Z,102222.14
2019-05-29T13:24:55.320Z,102213.37
2019-05-29T13:27:24.071Z,102214.56
2019-05-29T13:29:56.562Z,102210.34
2019-05-29T13:32:22.250Z,102207.81
2019-05-29T13:34:50.403Z,102207.00
2019-05-29T13:37:18.562Z,102199.86
2019-05-29T13:39:46.668Z,102203.82
2019-05-29T13:42:14.869Z,102202.58
2019-05-29T13:44:43.302Z,102198.66
2019-05-29T13:47:11.649Z,102195.12
2019-05-29T13:49:39.819Z,102194.61
2019-05-29T13:52:12.516Z,102194.11
2019-05-29T13:54:40.956Z,102189.69
2019-05-29T13:57:09.089Z,102193.48
2019-05-29T13:59:37.257Z,102195.24
2019-05-29T14:02:06.719Z,102189.69
2019-05-29T14:04:35.280Z,102181.81
2019-05-29T14:07:04.938Z,102180.06
2019-05-29T14:09:33.238Z,102171.31
2019-05-29T14:12:01.409Z,102173.28
2019-05-29T14:14:29.676Z,102172.87
2019-05-29T14:16:57.785Z,102166.70
2019-05-29T14:19:25.998Z,102170.38
2019-05-29T14:21:54.150Z,102163.28
2019-05-29T14:24:29.282Z,102158.32
2019-05-29T14:26:52.264Z,102157.58
2019-05-29T14:29:20.424Z,102159.13
2019-05-29T14:31:48.561Z,102151.62
2019-05-29T14:34:16.705Z,102156.88
2019-05-29T14:36:44.909Z,102155.00
2019-05-29T14:39:13.090Z,102152.75
2019-05-29T14:41:41.277Z,102155.87
2019-05-29T14:44:09.956Z,102159.00
2019-05-29T14:46:38.268Z,102138.08
2019-05-29T14:49:06.763Z,102142.49
2019-05-29T14:51:34.895Z,102128.70
2019-05-29T14:54:03.044Z,102139.78
2019-05-29T14:56:31.538Z,102138.86
2019-05-29T14:58:59.768Z,102140.16
2019-05-29T15:01:27.944Z,102136.10
2019-05-29T15:03:56.097Z,102137.89
2019-05-29T15:06:24.254Z,102130.77
2019-05-29T15:08:52.440Z,102124.19
2019-05-29T15:11:23.038Z,102120.66
2019-05-29T15:13:51.306Z,102125.89
2019-05-29T15:16:19.482Z,102119.64
2019-05-29T15:18:47.666Z,102128.47
2019-05-29T15:21:15.766Z,102122.45
2019-05-29T15:23:44.360Z,102117.34
2019-05-29T15:26:13.524Z,102117.14
2019-05-29T15:28:41.873Z,102117.50
2019-05-29T15:31:10.423Z,102118.85
2019-05-29T15:33:38.609Z,102119.55
2019-05-29T15:36:06.975Z,102120.67
2019-05-29T15:38:35.112Z,102119.55
2019-05-29T15:41:03.247Z,102120.21
2019-05-29T15:43:31.516Z,102119.45
2019-05-29T15:45:59.766Z,102110.12
2019-05-29T15:48:27.895Z,102110.89
2019-05-29T15:50:56.095Z,102114.08
2019-05-29T15:53:24.273Z,102111.20
2019-05-29T15:55:52.420Z,102109.14
2019-05-29T15:58:20.591Z,102114.13
2019-05-29T16:00:48.737Z,102106.02
2019-05-29T16:03:17.779Z,102106.30
2019-05-29T16:05:46.114Z,102106.31
2019-05-29T16:08:14.417Z,102106.62
2019-05-29T16:10:42.643Z,102105.48
2019-05-29T16:13:13.157Z,102101.42
2019-05-29T16:15:40.382Z,102101.89
2019-05-29T16:18:21.827Z,102100.08
2019-05-29T16:20:38.501Z,102096.86
2019-05-29T16:23:06.649Z,102091.63
2019-05-29T16:25:40.615Z,102098.57
2019-05-29T16:28:08.563Z,102100.00
2019-05-29T16:30:36.698Z,102095.91
2019-05-29T16:33:04.908Z,102090.45
2019-05-29T16:35:37.135Z,102093.38
2019-05-29T16:38:04.927Z,102087.87
2019-05-29T16:40:34.539Z,102093.89
2019-05-29T16:43:02.676Z,102091.41
2019-05-29T16:45:30.840Z,102083.57
2019-05-29T16:47:58.957Z,102089.95
2019-05-29T16:50:27.164Z,102094.47
2019-05-29T16:52:55.344Z,102092.16
2019-05-29T16:55:23.481Z,102098.70
2019-05-29T16:57:51.703Z,102094.53
2019-05-29T17:00:21.693Z,102095.56
2019-05-29T17:02:50.077Z,102086.04
2019-05-29T17:05:20.298Z,102080.09
2019-05-29T17:07:48.472Z,102087.95
2019-05-29T17:10:18.386Z,102087.79
2019-05-29T17:12:46.668Z,102089.03
2019-05-29T17:15:17.142Z,102089.91
2019-05-29T17:17:51.958Z,102097.45
2019-05-29T17:20:39.300Z,102100.12
2019-05-29T17:23:07.487Z,102091.75
2019-05-29T17:25:35.636Z,102092.70
2019-05-29T17:28:03.832Z,102089.66
2019-05-29T17:30:31.973Z,102088.84
2019-05-29T17:33:00.114Z,102088.79
2019-05-29T17:35:28.233Z,102087.50
2019-05-29T17:37:56.468Z,102083.03
2019-05-29T17:40:25.530Z,102080.84
2019-05-29T17:42:53.757Z,102082.25
2019-05-29T17:45:24.246Z,102082.84
2019-05-29T17:47:51.953Z,102080.83
2019-05-29T17:50:22.910Z,102090.31
2019-05-29T17:52:50.157Z,102092.75
2019-05-29T17:55:21.678Z,102092.47
2019-05-29T17:57:47.897Z,102092.23
2019-05-29T18:00:18.087Z,102093.34
2019-05-29T18:02:51.779Z,102091.23
2019-05-29T18:05:18.315Z,102086.97
2019-05-29T18:07:45.734Z,102087.09
2019-05-29T18:10:19.326Z,102085.03
2019-05-29T18:12:46.670Z,102082.94
2019-05-29T18:15:17.191Z,102091.91
2019-05-29T18:17:44.471Z,102084.48
2019-05-29T18:20:14.595Z,102082.83
2019-05-29T18:22:42.641Z,102078.91
2019-05-29T18:25:11.425Z,102078.97
2019-05-29T18:27:39.757Z,102076.84
2019-05-29T18:30:11.611Z,102077.78
2019-05-29T18:32:41.195Z,102079.18
2019-05-29T18:35:09.862Z,102074.81
2019-05-29T18:37:38.172Z,102077.94
2019-05-29T18:40:11.440Z,102075.75
2019-05-29T18:42:37.137Z,102080.22
2019-05-29T18:45:19.709Z,102071.86
2019-05-29T18:47:35.647Z,102073.27
2019-05-29T18:50:08.583Z,102074.67
2019-05-29T18:52:36.716Z,102078.23
2019-05-29T18:55:06.529Z,102076.53
2019-05-29T18:57:34.703Z,102073.47
2019-05-29T19:00:03.525Z,102077.95
2019-05-29T19:02:31.750Z,102075.73
2019-05-29T19:04:59.952Z,102066.52
2019-05-29T19:07:28.126Z,102068.73
2019-05-29T19:09:57.330Z,102071.89
2019-05-29T19:12:25.802Z,102068.41
2019-05-29T19:14:53.987Z,102075.98
2019-05-29T19:17:22.151Z,102069.80
2019-05-29T19:19:50.398Z,102072.51
2019-05-29T19:22:18.518Z,102057.95
2019-05-29T19:24:46.724Z,102063.27
2019-05-29T19:27:30.101Z,102069.92
2019-05-29T19:29:44.898Z,102067.30
2019-05-29T19:32:13.121Z,102065.11
2019-05-29T19:34:41.950Z,102072.58
2019-05-29T19:37:10.053Z,102063.80
2019-05-29T19:39:38.498Z,102072.17
2019-05-29T19:42:06.633Z,102067.34
2019-05-29T19:44:34.806Z,102063.81
2019-05-29T19:47:02.990Z,102059.85
2019-05-29T19:49:31.237Z,102068.69
2019-05-29T19:51:59.356Z,102065.13
2019-05-29T19:54:27.509Z,102068.66
2019-05-29T19:56:55.738Z,102063.80
2019-05-29T19:59:23.940Z,102069.51
2019-05-29T20:01:52.067Z,102071.25
2019-05-29T20:04:20.197Z,102072.55
2019-05-29T20:06:48.395Z,102079.12
2019-05-29T20:09:16.542Z,102087.94
2019-05-29T20:11:44.700Z,102084.80
2019-05-29T20:14:12.853Z,102090.11
2019-05-29T20:16:41.049Z,102083.03
2019-05-29T20:19:09.238Z,102081.71
2019-05-29T20:21:37.419Z,102075.52
2019-05-29T20:24:05.537Z,102073.32
2019-05-29T20:26:33.670Z,102077.27
2019-05-29T20:29:01.807Z,102075.52
2019-05-29T20:31:30.440Z,102073.31
2019-05-29T20:33:59.838Z,102074.63
2019-05-29T20:36:27.985Z,102071.55
2019-05-29T20:38:56.218Z,102074.16
2019-05-29T20:41:24.418Z,102073.31
2019-05-29T20:43:52.595Z,102072.86
2019-05-29T20:46:20.703Z,102072.42
2019-05-29T20:48:48.872Z,102069.77
2019-05-29T20:51:17.038Z,102072.86
2019-05-29T20:53:45.196Z,102070.69
2019-05-29T20:56:14.040Z,102070.67
2019-05-29T20:58:42.206Z,102065.83
2019-05-29T21:01:10.329Z,102062.30
2019-05-29T21:03:38.705Z,102064.09
2019-05-29T21:06:09.545Z,102062.33
2019-05-29T21:08:38.930Z,102062.76
2019-05-29T21:11:07.281Z,102059.67
2019-05-29T21:13:35.502Z,102063.20
2019-05-29T21:16:03.732Z,102064.08
2019-05-29T21:18:31.974Z,102061.44
2019-05-29T21:21:00.196Z,102060.55
2019-05-29T21:23:28.380Z,102054.83
2019-05-29T21:25:56.495Z,102060.12
2019-05-29T21:28:39.244Z,102060.12
2019-05-29T21:30:54.631Z,102060.55
2019-05-29T21:33:22.855Z,102059.67
2019-05-29T21:35:51.018Z,102050.87
2019-05-29T21:38:19.197Z,102054.39
2019-05-29T21:40:47.373Z,102053.07
2019-05-29T21:43:15.535Z,102064.52
2019-05-29T21:45:44.918Z,102065.41
2019-05-29T21:48:13.336Z,102066.73
2019-05-29T21:50:41.497Z,102068.91
2019-05-29T21:53:09.713Z,102073.31
2019-05-29T21:55:37.874Z,102071.55
2019-05-29T21:58:06.013Z,102071.56
2019-05-29T22:00:34.526Z,102070.21
2019-05-29T22:03:02.627Z,102071.98
2019-05-29T22:05:30.809Z,102069.78
2019-05-29T22:07:58.982Z,102068.88
2019-05-29T22:10:27.198Z,102074.16
2019-05-29T22:12:56.451Z,102067.12
2019-05-29T22:15:24.781Z,102065.36
2019-05-29T22:17:52.967Z,102060.92
2019-05-29T22:20:21.116Z,102067.53
2019-05-29T22:22:49.295Z,102071.51
2019-05-29T22:25:18.869Z,102063.11
2019-05-29T22:27:47.032Z,102057.39
2019-05-29T22:30:15.633Z,102060.45
2019-05-29T22:32:44.110Z,102058.70
2019-05-29T22:35:12.791Z,102059.55
2019-05-29T22:37:42.278Z,102052.94
2019-05-29T22:40:11.535Z,102058.66
2019-05-29T22:42:39.717Z,102057.78
2019-05-29T22:45:08.211Z,102050.73
2019-05-29T22:47:36.407Z,102052.94
2019-05-29T22:50:08.028Z,102045.01
2019-05-29T22:52:36.154Z,102042.81
2019-05-29T22:55:04.556Z,102035.32
2019-05-29T22:57:32.729Z,102033.56
2019-05-29T23:00:02.341Z,102030.92
2019-05-29T23:02:30.681Z,102024.31
2019-05-29T23:04:58.865Z,102026.05
2019-05-29T23:07:26.991Z,102021.20
2019-05-29T23:09:56.127Z,102024.73
2019-05-29T23:12:24.329Z,102016.81
2019-05-29T23:14:52.527Z,102020.34
2019-05-29T23:17:20.672Z,102020.74
2019-05-29T23:19:52.425Z,102013.70
2019-05-29T23:22:23.823Z,102018.11
2019-05-29T23:24:50.484Z,102010.63
2019-05-29T23:27:18.655Z,102004.90
2019-05-29T23:29:49.204Z,102006.22
2019-05-29T23:32:16.686Z,102003.14
2019-05-29T23:34:46.435Z,102007.10
2019-05-29T23:37:14.647Z,102005.31
2019-05-29T23:39:42.843Z,102004.43
2019-05-29T23:42:11.041Z,102003.11
2019-05-29T23:44:41.534Z,102000.03
2019-05-29T23:47:10.129Z,101996.95
2019-05-29T23:49:38.289Z,102002.67
2019-05-29T23:52:06.428Z,101996.07
2019-05-29T23:54:34.577Z,101991.20
2019-05-29T23:57:04.177Z,101991.64
2019-05-29T23:59:32.399Z,101987.69
